createdAt,value
2018-11-14T00:08:42.637Z,12.60
2018-11-14T00:19:02.986Z,15.17
2018-11-14T00:29:20.992Z,14.23
2018-11-14T00:39:38.824Z,14.53
2018-11-14T00:49:57.384Z,18.90
2018-11-14T01:00:23.512Z,20.87
2018-11-14T01:10:41.958Z,27.30
2018-11-14T01:21:01.384Z,30.10
2018-11-14T01:31:19.583Z,28.40
2018-11-14T01:41:38.282Z,35.00
2018-11-14T01:51:56.632Z,39.40
2018-11-14T02:02:14.549Z,37.23
2018-11-14T02:12:32.725Z,43.17
2018-11-14T02:22:51.032Z,40.90
2018-11-14T02:33:09.136Z,45.67
2018-11-14T02:43:27.287Z,41.43
2018-11-14T02:53:45.292Z,48.60
2018-11-14T03:04:03.625Z,44.07
2018-11-14T03:14:21.892Z,54.73
2018-11-14T03:24:40.424Z,52.10
2018-11-14T03:34:58.284Z,54.40
2018-11-14T03:45:16.566Z,51.43
2018-11-14T03:55:35.112Z,62.03
2018-11-14T04:05:53.600Z,58.10
2018-11-14T04:16:11.645Z,76.93
2018-11-14T04:26:30.273Z,62.47
2018-11-14T04:36:48.217Z,60.03
2018-11-14T04:47:05.863Z,73.07
2018-11-14T04:57:24.016Z,69.07
2018-11-14T05:07:42.017Z,50.87
2018-11-14T05:18:00.127Z,70.77
2018-11-14T05:28:17.830Z,42.20
2018-11-14T05:38:36.046Z,85.30
2018-11-14T05:48:54.442Z,83.20
2018-11-14T05:59:12.952Z,74.83
2018-11-14T06:09:31.350Z,66.90
2018-11-14T06:19:49.240Z,77.50
2018-11-14T06:29:49.132Z,88.57
2018-11-14T06:39:48.956Z,86.90
2018-11-14T06:49:48.888Z,123.03
2018-11-14T06:59:48.950Z,78.37
2018-11-14T07:09:48.681Z,68.13
2018-11-14T07:19:48.616Z,63.30
2018-11-14T07:29:48.462Z,86.07
2018-11-14T07:39:48.319Z,102.27
2018-11-14T07:50:09.762Z,116.50
2018-11-14T08:00:27.795Z,67.03
2018-11-14T08:10:46.295Z,54.70
2018-11-14T08:21:04.944Z,40.47
2018-11-14T08:31:23.200Z,32.87
2018-11-14T08:41:41.532Z,20.13
2018-11-14T08:52:00.108Z,17.40
2018-11-14T09:02:18.138Z,13.50
2018-11-14T09:12:36.351Z,12.67
2018-11-14T09:22:54.209Z,13.37
2018-11-14T09:33:12.191Z,16.30
2018-11-14T09:43:30.176Z,13.77
2018-11-14T09:53:48.429Z,10.33
2018-11-14T10:04:08.387Z,6.50
2018-11-14T10:14:27.065Z,5.47
2018-11-14T10:24:45.368Z,7.60
2018-11-14T10:35:03.424Z,4.47
2018-11-14T10:45:23.011Z,4.43
2018-11-14T10:55:41.303Z,3.87
2018-11-14T11:06:17.363Z,6.83
2018-11-14T11:16:35.215Z,7.47
2018-11-14T11:26:54.382Z,60.43
2018-11-14T11:37:12.128Z,31.27
2018-11-14T11:47:30.677Z,25.97
2018-11-14T11:57:48.749Z,13.43
2018-11-14T12:08:06.663Z,16.93
2018-11-14T12:18:24.488Z,20.43
2018-11-14T12:28:42.530Z,19.30
2018-11-14T12:39:00.320Z,20.97
2018-11-14T12:49:18.502Z,16.53
2018-11-14T12:59:37.085Z,13.70
2018-11-14T13:09:55.380Z,10.40
2018-11-14T13:20:15.787Z,11.67
2018-11-14T13:30:33.723Z,13.77
2018-11-14T13:40:52.023Z,10.80
2018-11-14T13:51:10.286Z,11.07
2018-11-14T14:01:28.648Z,13.90
2018-11-14T14:11:46.918Z,17.23
2018-11-14T14:22:05.105Z,16.00
2018-11-14T14:32:23.503Z,13.97
2018-11-14T14:42:41.823Z,19.93
2018-11-14T14:53:00.220Z,25.97
2018-11-14T15:03:18.468Z,20.17
2018-11-14T15:13:36.195Z,15.00
2018-11-14T15:23:54.540Z,11.23
2018-11-14T15:34:12.955Z,16.77
2018-11-14T15:44:31.144Z,17.83
2018-11-14T15:54:49.196Z,21.07
2018-11-14T16:05:08.991Z,104.93
2018-11-14T16:15:29.360Z,47.33
2018-11-14T16:25:47.367Z,39.70
2018-11-14T16:36:06.612Z,51.20
2018-11-14T16:46:24.918Z,43.10
2018-11-14T16:56:42.652Z,38.10
2018-11-14T17:07:01.177Z,29.77
2018-11-14T17:17:19.283Z,30.73
2018-11-14T17:27:37.384Z,46.47
2018-11-14T17:37:55.230Z,29.97
2018-11-14T17:48:13.534Z,90.27
2018-11-14T17:58:31.543Z,46.20
2018-11-14T18:08:49.544Z,53.63
2018-11-14T18:19:08.273Z,48.70
2018-11-14T18:29:26.385Z,44.13
2018-11-14T18:39:44.389Z,60.80
2018-11-14T18:50:02.341Z,51.63
2018-11-14T19:00:32.011Z,43.83
2018-11-14T19:10:50.379Z,33.67
2018-11-14T19:21:09.233Z,42.73
2018-11-14T19:31:27.602Z,39.67
2018-11-14T19:41:50.355Z,47.57
2018-11-14T19:52:09.434Z,41.13
2018-11-14T20:02:27.777Z,31.73
2018-11-14T20:12:46.930Z,37.97
2018-11-14T20:23:06.030Z,41.70
2018-11-14T20:33:24.850Z,37.97
2018-11-14T20:43:43.245Z,64.43
2018-11-14T20:54:04.808Z,49.07
2018-11-14T21:04:22.930Z,54.03
2018-11-14T21:14:41.558Z,40.07
2018-11-14T21:25:00.494Z,53.20
2018-11-14T21:35:23.987Z,52.33
2018-11-14T21:45:42.868Z,56.47
2018-11-14T21:56:01.350Z,42.13
2018-11-14T22:06:19.650Z,74.30
2018-11-14T22:16:38.690Z,31.63
2018-11-14T22:26:57.062Z,44.43
2018-11-14T22:37:16.014Z,35.60
2018-11-14T22:47:41.628Z,24.17
2018-11-14T22:58:00.010Z,28.53
2018-11-14T23:08:18.065Z,25.07
2018-11-14T23:18:36.892Z,29.33
2018-11-14T23:28:55.040Z,40.03
2018-11-14T23:39:14.653Z,19.83
2018-11-14T23:49:34.502Z,28.73
2018-11-14T23:59:53.246Z,36.60
